Lucia, California
Current Conditions -  °F | °C
As of 1:54 PM on Monday 24 Nov 2014 (Local Time) from KMRY Reporting Station
Clear Clear  
Wind Chill: 65°   Ceiling: Unl
Heat Index: 65°   Visibility: 10mi
Dew Point: 40°   Wind: 8mph
Humidity: 40%   Direction: 300°WNW
Pressure: 30.33"   Gusts: NA
Location:  36.2518°N, 121.704°W
Report Text: KMRY 242154Z 30007KT 10SM CLR 18/04 A3033 RMK AO2 SLP284 T01830044
Loading
Personal Weather Stations






























Interactive Weather Map New forecast layout! Learn more

10-Day Weather Forecast

Advertisements
Track Severe Weather on mobile